createdAt,value
2023-03-10T00:01:24.060Z,23.50
2023-03-10T00:03:52.680Z,25.75
2023-03-10T00:06:22.526Z,24.50
2023-03-10T00:08:50.951Z,24.25
2023-03-10T00:11:19.021Z,23.25
2023-03-10T00:13:48.141Z,22.25
2023-03-10T00:16:22.475Z,22.25
2023-03-10T00:18:54.018Z,23.25
2023-03-10T00:21:25.847Z,25.50
2023-03-10T00:23:56.943Z,24.00
2023-03-10T00:26:28.099Z,23.25
2023-03-10T00:28:56.120Z,25.25
2023-03-10T00:31:26.679Z,22.00
2023-03-10T00:33:56.375Z,25.25
2023-03-10T00:36:28.432Z,24.25
2023-03-10T00:38:57.906Z,24.25
2023-03-10T00:41:33.613Z,21.75
2023-03-10T00:44:01.655Z,23.00
2023-03-10T00:46:30.206Z,23.75
2023-03-10T00:48:57.793Z,26.25
2023-03-10T00:51:26.915Z,25.75
2023-03-10T00:53:57.058Z,26.50
2023-03-10T00:56:25.814Z,23.25
2023-03-10T00:58:56.372Z,24.25
2023-03-10T01:01:27.414Z,22.25
2023-03-10T01:03:57.046Z,26.25
2023-03-10T01:06:25.009Z,22.25
2023-03-10T01:08:54.841Z,25.75
2023-03-10T01:11:26.490Z,23.75
2023-03-10T01:14:00.698Z,22.25
2023-03-10T01:16:28.946Z,22.50
2023-03-10T01:18:57.221Z,26.00
2023-03-10T01:21:30.350Z,24.00
2023-03-10T01:23:58.082Z,21.50
2023-03-10T01:26:25.583Z,25.00
2023-03-10T01:28:53.285Z,22.50
2023-03-10T01:31:21.515Z,25.75
2023-03-10T01:33:49.846Z,26.75
2023-03-10T01:36:20.314Z,25.00
2023-03-10T01:38:48.985Z,24.00
2023-03-10T01:41:17.600Z,17.25
2023-03-10T01:43:47.647Z,25.25
2023-03-10T01:46:37.404Z,25.75
2023-03-10T01:49:11.655Z,25.00
2023-03-10T01:51:43.206Z,24.00
2023-03-10T01:54:17.096Z,25.00
2023-03-10T01:56:47.341Z,24.25
2023-03-10T01:59:15.032Z,22.50
2023-03-10T02:01:42.922Z,24.25
2023-03-10T02:04:35.424Z,23.00
2023-03-10T02:07:06.411Z,22.00
2023-03-10T02:09:39.122Z,20.25
2023-03-10T02:12:08.288Z,22.25
2023-03-10T02:14:41.283Z,22.00
2023-03-10T02:17:13.888Z,22.25
2023-03-10T02:20:13.184Z,22.00
2023-03-10T02:22:41.749Z,20.50
2023-03-10T02:25:33.151Z,20.50
2023-03-10T02:28:00.744Z,22.25
2023-03-10T02:30:39.143Z,22.25
2023-03-10T02:33:12.120Z,20.00
2023-03-10T02:35:40.125Z,21.25
2023-03-10T02:38:07.575Z,19.50
2023-03-10T02:40:40.379Z,21.00
2023-03-10T02:43:14.318Z,20.50
2023-03-10T02:45:44.600Z,16.25
2023-03-10T02:48:34.218Z,21.25
2023-03-10T02:51:05.856Z,21.50
2023-03-10T02:53:33.635Z,22.00
2023-03-10T02:56:01.177Z,21.00
2023-03-10T02:58:31.167Z,20.75
2023-03-10T03:00:59.322Z,22.00
2023-03-10T03:03:27.184Z,19.50
2023-03-10T03:05:54.613Z,19.00
2023-03-10T03:08:30.106Z,20.00
2023-03-10T03:10:57.674Z,22.00
2023-03-10T03:13:25.395Z,21.00
2023-03-10T03:15:52.767Z,21.25
2023-03-10T03:18:20.589Z,21.00
2023-03-10T03:20:48.060Z,13.50
2023-03-10T03:23:17.419Z,21.25
2023-03-10T03:25:44.813Z,20.25
2023-03-10T03:28:12.710Z,22.50
2023-03-10T03:30:40.739Z,18.50
2023-03-10T03:33:08.690Z,18.75
2023-03-10T03:35:38.248Z,20.25
2023-03-10T03:38:06.642Z,19.50
2023-03-10T03:40:36.754Z,19.00
2023-03-10T03:43:05.291Z,17.75
2023-03-10T03:45:38.128Z,20.25
2023-03-10T03:48:05.729Z,19.00
2023-03-10T03:50:33.243Z,12.25
2023-03-10T03:53:00.641Z,21.50
2023-03-10T03:55:29.009Z,20.25
2023-03-10T03:58:00.740Z,21.75
2023-03-10T04:00:28.166Z,20.25
2023-03-10T04:02:56.414Z,22.25
2023-03-10T04:05:26.610Z,22.25
2023-03-10T04:07:55.233Z,22.50
2023-03-10T04:10:28.486Z,22.25
2023-03-10T04:12:57.160Z,19.75
2023-03-10T04:15:24.808Z,16.75
2023-03-10T04:17:53.958Z,18.25
2023-03-10T04:20:21.364Z,20.75
2023-03-10T04:22:49.334Z,19.00
2023-03-10T04:25:16.892Z,14.75
2023-03-10T04:27:44.481Z,21.50
2023-03-10T04:30:14.348Z,20.75
2023-03-10T04:32:42.780Z,21.75
2023-03-10T04:35:13.438Z,17.25
2023-03-10T04:37:41.231Z,15.50
2023-03-10T04:40:13.133Z,21.75
2023-03-10T04:42:40.666Z,18.25
2023-03-10T04:45:08.784Z,20.00
2023-03-10T04:47:38.074Z,10.50
2023-03-10T04:50:07.229Z,19.75
2023-03-10T04:52:34.865Z,18.50
2023-03-10T04:55:02.382Z,15.00
2023-03-10T04:57:30.178Z,21.25
2023-03-10T04:59:57.677Z,19.75
2023-03-10T05:02:25.352Z,17.25
2023-03-10T05:04:53.188Z,20.50
2023-03-10T05:07:21.524Z,18.50
2023-03-10T05:09:49.642Z,16.50
2023-03-10T05:12:17.151Z,20.25
2023-03-10T05:14:44.895Z,22.25
2023-03-10T05:17:12.648Z,24.00
2023-03-10T05:19:40.453Z,20.00
2023-03-10T05:22:11.654Z,18.25
2023-03-10T05:24:43.000Z,16.00
2023-03-10T05:27:10.674Z,16.75
2023-03-10T05:29:39.307Z,20.25
2023-03-10T05:32:07.693Z,19.00
2023-03-10T05:34:38.887Z,19.25
2023-03-10T05:37:06.405Z,22.00
2023-03-10T05:39:34.258Z,19.00
2023-03-10T05:42:01.756Z,22.50
2023-03-10T05:44:29.479Z,22.25
2023-03-10T05:47:02.262Z,31.50
2023-03-10T05:49:30.895Z,35.00
2023-03-10T05:51:58.941Z,34.25
2023-03-10T05:54:26.800Z,34.75
2023-03-10T05:56:54.293Z,26.25
2023-03-10T05:59:21.785Z,26.75
2023-03-10T06:01:49.181Z,22.25
2023-03-10T06:04:16.631Z,21.00
2023-03-10T06:06:44.192Z,22.25
2023-03-10T06:09:12.284Z,20.75
2023-03-10T06:11:42.173Z,16.50
2023-03-10T06:14:10.223Z,17.25
2023-03-10T06:16:40.239Z,20.50
2023-03-10T06:19:11.216Z,23.50
2023-03-10T06:21:38.634Z,20.25
2023-03-10T06:24:06.159Z,19.25
2023-03-10T06:26:34.780Z,21.50
2023-03-10T06:29:02.242Z,16.25
2023-03-10T06:31:34.660Z,19.50
2023-03-10T06:34:04.394Z,19.25
2023-03-10T06:36:32.721Z,16.25
2023-03-10T06:39:00.249Z,18.00
2023-03-10T06:41:28.248Z,12.00
2023-03-10T06:43:55.680Z,19.25
2023-03-10T06:46:25.617Z,16.50
2023-03-10T06:48:53.739Z,17.25
2023-03-10T06:51:22.452Z,21.00
2023-03-10T06:53:51.867Z,21.00
2023-03-10T06:56:21.968Z,14.25
2023-03-10T06:58:49.768Z,13.75
2023-03-10T07:01:24.484Z,16.50
2023-03-10T07:03:53.236Z,14.50
2023-03-10T07:06:24.665Z,14.67
2023-03-10T07:09:11.960Z,15.67
2023-03-10T07:11:39.599Z,13.00
2023-03-10T07:14:07.550Z,13.00
2023-03-10T07:16:34.994Z,14.33
2023-03-10T07:19:02.395Z,15.25
2023-03-10T07:21:36.224Z,15.00
2023-03-10T07:24:04.142Z,13.25
2023-03-10T07:26:32.058Z,16.67
2023-03-10T07:29:02.624Z,5.33
2023-03-10T07:31:30.934Z,10.33
2023-03-10T07:33:59.088Z,17.00
2023-03-10T07:36:30.091Z,15.33
2023-03-10T07:38:57.650Z,14.00
2023-03-10T07:41:25.260Z,11.67
2023-03-10T07:43:54.580Z,17.00
2023-03-10T07:46:22.446Z,15.33
2023-03-10T07:48:49.930Z,17.67
2023-03-10T07:51:18.039Z,14.00
2023-03-10T07:53:45.484Z,14.67
2023-03-10T07:56:14.509Z,9.67
2023-03-10T07:58:42.288Z,16.33
2023-03-10T08:01:15.313Z,14.50
2023-03-10T08:03:43.265Z,15.00
2023-03-10T08:06:20.343Z,11.67
2023-03-10T08:08:49.966Z,13.67
2023-03-10T08:11:18.007Z,13.75
2023-03-10T08:13:47.601Z,16.33
2023-03-10T08:16:17.389Z,16.33
2023-03-10T08:18:45.684Z,11.50
2023-03-10T08:21:13.232Z,15.00
2023-03-10T08:23:44.991Z,13.33
2023-03-10T08:26:17.257Z,13.25
2023-03-10T08:28:45.025Z,15.50
2023-03-10T08:31:16.222Z,14.50
2023-03-10T08:33:46.779Z,11.00
2023-03-10T08:36:18.314Z,11.00
2023-03-10T08:38:46.845Z,12.25
2023-03-10T08:41:24.232Z,14.75
2023-03-10T08:43:53.647Z,14.00
2023-03-10T08:46:23.034Z,12.75
2023-03-10T08:48:50.995Z,11.50
2023-03-10T08:51:18.734Z,14.50
2023-03-10T08:53:49.073Z,13.00
2023-03-10T08:56:18.112Z,15.25
2023-03-10T08:58:46.110Z,14.25
2023-03-10T09:01:17.675Z,10.25
2023-03-10T09:03:46.368Z,13.00
2023-03-10T09:06:14.928Z,12.00
2023-03-10T09:08:44.036Z,12.25
2023-03-10T09:11:16.891Z,14.00
2023-03-10T09:13:44.468Z,11.00
2023-03-10T09:16:13.527Z,8.25
2023-03-10T09:18:41.672Z,13.00
2023-03-10T09:21:12.039Z,9.25
2023-03-10T09:23:42.357Z,10.75
2023-03-10T09:26:10.100Z,13.25
2023-03-10T09:28:42.318Z,13.25
2023-03-10T09:31:17.430Z,11.00
2023-03-10T09:33:46.535Z,11.75
2023-03-10T09:36:17.333Z,12.25
2023-03-10T09:38:45.493Z,12.25
2023-03-10T09:41:43.640Z,10.25
2023-03-10T09:44:43.464Z,11.50
2023-03-10T09:47:20.147Z,11.75
2023-03-10T09:50:13.256Z,10.25
2023-03-10T09:52:57.735Z,12.50
2023-03-10T09:55:47.384Z,11.25
2023-03-10T09:58:36.690Z,13.00
2023-03-10T10:01:06.356Z,12.00
2023-03-10T10:03:53.096Z,12.00
2023-03-10T10:06:48.236Z,10.75
2023-03-10T10:09:42.376Z,7.75
2023-03-10T10:12:17.468Z,10.00
2023-03-10T10:14:55.270Z,10.00
2023-03-10T10:17:52.945Z,10.75
2023-03-10T10:20:33.628Z,5.00
2023-03-10T10:23:01.578Z,10.20
2023-03-10T10:25:32.892Z,7.00
2023-03-10T10:28:02.436Z,12.80
2023-03-10T10:30:39.661Z,9.80
2023-03-10T10:33:14.780Z,10.25
2023-03-10T10:36:00.768Z,9.00
2023-03-10T10:38:31.397Z,10.60
2023-03-10T10:41:07.202Z,8.00
2023-03-10T10:43:45.484Z,8.20
2023-03-10T10:46:15.713Z,10.20
2023-03-10T10:48:46.332Z,8.20
2023-03-10T10:51:29.584Z,11.80
2023-03-10T10:54:04.523Z,8.80
2023-03-10T10:56:32.507Z,7.80
2023-03-10T10:59:18.630Z,7.00
2023-03-10T11:01:56.265Z,7.80
2023-03-10T11:04:26.677Z,7.80
2023-03-10T11:07:11.687Z,8.00
2023-03-10T11:09:41.724Z,7.80
2023-03-10T11:12:31.394Z,9.00
2023-03-10T11:15:36.827Z,10.40
2023-03-10T11:18:22.847Z,9.20
2023-03-10T11:21:09.205Z,11.00
2023-03-10T11:24:00.218Z,9.40
2023-03-10T11:26:46.245Z,6.40
2023-03-10T11:29:28.783Z,10.60
2023-03-10T11:32:19.347Z,10.80
2023-03-10T11:34:51.936Z,10.80
2023-03-10T11:38:02.614Z,13.00
2023-03-10T11:40:48.833Z,10.00
2023-03-10T11:43:23.457Z,14.60
2023-03-10T11:45:54.405Z,17.25
2023-03-10T11:48:46.813Z,15.50
2023-03-10T11:51:24.698Z,16.75
2023-03-10T11:53:58.880Z,15.40
2023-03-10T11:56:27.708Z,16.60
2023-03-10T11:59:05.871Z,17.50
2023-03-10T12:01:53.885Z,17.50
2023-03-10T12:04:56.772Z,15.20
2023-03-10T12:07:40.259Z,14.80
2023-03-10T12:10:11.698Z,17.60
2023-03-10T12:12:42.972Z,16.25
2023-03-10T12:15:22.497Z,19.00
2023-03-10T12:17:55.144Z,18.00
2023-03-10T12:20:24.820Z,17.20
2023-03-10T12:23:11.403Z,19.00
2023-03-10T12:25:39.256Z,19.00
2023-03-10T12:28:29.239Z,18.00
2023-03-10T12:31:10.568Z,19.50
2023-03-10T12:33:49.800Z,18.00
2023-03-10T12:36:37.510Z,18.40
2023-03-10T12:39:38.063Z,18.20
2023-03-10T12:42:27.260Z,18.80
2023-03-10T12:45:21.462Z,19.50
2023-03-10T12:48:17.910Z,18.20
2023-03-10T12:51:00.724Z,19.20
2023-03-10T12:53:55.073Z,21.25
2023-03-10T12:56:38.725Z,17.20
2023-03-10T12:59:17.124Z,19.80
2023-03-10T13:01:55.524Z,18.20
2023-03-10T13:04:32.196Z,15.20
2023-03-10T13:07:04.189Z,17.80
2023-03-10T13:09:43.763Z,18.60
2023-03-10T13:12:26.504Z,18.80
2023-03-10T13:14:58.273Z,15.00
2023-03-10T13:17:31.029Z,15.00
2023-03-10T13:20:01.884Z,15.20
2023-03-10T13:22:29.862Z,15.00
2023-03-10T13:25:03.060Z,17.00
2023-03-10T13:27:33.612Z,16.60
2023-03-10T13:30:15.233Z,16.80
2023-03-10T13:32:59.417Z,16.80
2023-03-10T13:35:38.484Z,18.00
2023-03-10T13:38:11.751Z,18.00
2023-03-10T13:40:58.120Z,21.00
2023-03-10T13:43:36.564Z,18.40
2023-03-10T13:46:10.599Z,16.40
2023-03-10T13:48:42.606Z,15.00
2023-03-10T13:51:18.237Z,15.40
2023-03-10T13:53:48.077Z,14.20
2023-03-10T13:56:23.660Z,16.80
2023-03-10T13:58:54.517Z,13.80
2023-03-10T14:01:28.078Z,14.60
2023-03-10T14:03:59.159Z,15.40
2023-03-10T14:06:29.658Z,16.40
2023-03-10T14:09:13.205Z,16.60
2023-03-10T14:11:42.853Z,18.60
2023-03-10T14:14:11.949Z,19.20
2023-03-10T14:16:45.656Z,14.20
2023-03-10T14:19:34.720Z,15.40
2023-03-10T14:22:02.554Z,14.80
2023-03-10T14:24:30.170Z,16.00
2023-03-10T14:27:01.180Z,15.80
2023-03-10T14:29:30.863Z,15.60
2023-03-10T14:31:59.970Z,16.20
2023-03-10T14:34:27.553Z,16.60
2023-03-10T14:36:55.188Z,15.00
2023-03-10T14:39:24.242Z,17.60
2023-03-10T14:41:51.727Z,9.60
2023-03-10T14:44:20.497Z,17.00
2023-03-10T14:46:53.128Z,16.80
2023-03-10T14:49:24.181Z,14.75
2023-03-10T14:51:51.687Z,15.00
2023-03-10T14:54:24.681Z,13.00
2023-03-10T14:56:59.305Z,17.00
2023-03-10T14:59:28.376Z,16.50
2023-03-10T15:02:02.257Z,17.00
2023-03-10T15:04:29.879Z,17.00
2023-03-10T15:06:57.225Z,11.25
2023-03-10T15:09:24.604Z,17.50
2023-03-10T15:11:54.726Z,21.75
2023-03-10T15:14:22.137Z,17.00
2023-03-10T15:16:49.716Z,21.00
2023-03-10T15:19:28.241Z,5.25
2023-03-10T15:21:55.726Z,10.50
2023-03-10T15:24:23.433Z,15.25
2023-03-10T15:26:51.179Z,16.50
2023-03-10T15:29:23.598Z,18.25
2023-03-10T15:31:51.264Z,20.00
2023-03-10T15:34:20.649Z,17.00
2023-03-10T15:36:51.478Z,17.75
2023-03-10T15:39:31.101Z,21.25
2023-03-10T15:42:00.390Z,23.00
2023-03-10T15:44:27.781Z,22.00
2023-03-10T15:46:55.965Z,20.67
2023-03-10T15:49:23.584Z,22.67
2023-03-10T15:51:50.956Z,22.00
2023-03-10T15:54:18.427Z,22.00
2023-03-10T15:56:45.849Z,22.75
2023-03-10T15:59:13.750Z,17.75
2023-03-10T16:01:42.967Z,23.00
2023-03-10T16:04:10.578Z,24.00
2023-03-10T16:06:37.958Z,21.50
2023-03-10T16:09:07.865Z,24.25
2023-03-10T16:11:37.750Z,22.25
2023-03-10T16:14:05.341Z,25.00
2023-03-10T16:16:33.070Z,23.50
2023-03-10T16:19:00.540Z,22.75
2023-03-10T16:21:28.119Z,23.50
2023-03-10T16:23:55.885Z,23.25
2023-03-10T16:26:24.395Z,24.00
2023-03-10T16:28:54.441Z,23.00
2023-03-10T16:31:26.472Z,24.50
2023-03-10T16:33:55.860Z,22.75
2023-03-10T16:36:26.957Z,21.00
2023-03-10T16:38:55.207Z,26.00
2023-03-10T16:41:24.073Z,27.00
2023-03-10T16:43:52.145Z,26.50
2023-03-10T16:46:25.510Z,27.00
2023-03-10T16:48:57.039Z,24.25
2023-03-10T16:51:38.137Z,26.00
2023-03-10T16:54:12.402Z,25.25
2023-03-10T16:56:42.801Z,25.50
2023-03-10T16:59:18.393Z,24.75
2023-03-10T17:01:47.133Z,27.00
2023-03-10T17:04:14.840Z,25.00
2023-03-10T17:06:44.160Z,24.00
2023-03-10T17:09:13.577Z,25.75
2023-03-10T17:11:46.738Z,25.25
2023-03-10T17:14:17.327Z,26.00
2023-03-10T17:16:46.571Z,29.25
2023-03-10T17:19:17.930Z,26.75
2023-03-10T17:21:51.515Z,29.00
2023-03-10T17:24:20.441Z,26.50
2023-03-10T17:26:48.297Z,28.75
2023-03-10T17:29:17.265Z,31.25
2023-03-10T17:31:48.937Z,27.00
2023-03-10T17:34:17.604Z,30.25
2023-03-10T17:36:45.197Z,35.25
2023-03-10T17:39:19.064Z,34.50
2023-03-10T17:41:48.221Z,35.00
2023-03-10T17:44:19.181Z,36.00
2023-03-10T17:46:52.611Z,33.25
2023-03-10T17:49:20.032Z,36.00
2023-03-10T17:51:47.742Z,36.50
2023-03-10T17:54:22.785Z,33.75
2023-03-10T17:56:50.462Z,33.25
2023-03-10T17:59:18.460Z,35.00
2023-03-10T18:01:46.814Z,30.00
2023-03-10T18:04:14.375Z,34.00
2023-03-10T18:06:43.546Z,35.00
2023-03-10T18:09:30.829Z,35.50
2023-03-10T18:12:02.340Z,33.00
2023-03-10T18:14:30.385Z,35.75
2023-03-10T18:16:57.975Z,37.50
2023-03-10T18:19:31.759Z,36.25
2023-03-10T18:21:59.935Z,34.75
2023-03-10T18:24:27.423Z,30.00
2023-03-10T18:26:56.219Z,31.00
2023-03-10T18:29:23.945Z,33.75
2023-03-10T18:31:57.205Z,32.50
2023-03-10T18:34:32.678Z,27.00
2023-03-10T18:37:00.239Z,24.25
2023-03-10T18:39:27.927Z,25.75
2023-03-10T18:41:55.680Z,26.25
2023-03-10T18:44:24.130Z,22.00
2023-03-10T18:46:51.939Z,22.00
2023-03-10T18:49:19.622Z,22.00
2023-03-10T18:51:47.738Z,22.00
2023-03-10T18:54:15.159Z,19.00
2023-03-10T18:56:43.281Z,19.00
2023-03-10T18:59:11.274Z,22.75
2023-03-10T19:01:38.699Z,24.00
2023-03-10T19:04:06.404Z,20.00
2023-03-10T19:06:34.734Z,16.25
2023-03-10T19:09:08.733Z,16.50
2023-03-10T19:11:38.299Z,22.00
2023-03-10T19:14:07.043Z,21.00
2023-03-10T19:16:39.950Z,20.50
2023-03-10T19:19:12.032Z,21.75
2023-03-10T19:21:40.076Z,22.00
2023-03-10T19:24:07.924Z,20.75
2023-03-10T19:26:36.327Z,22.00
2023-03-10T19:29:04.705Z,24.00
2023-03-10T19:31:34.251Z,22.00
2023-03-10T19:34:01.950Z,25.75
2023-03-10T19:36:29.989Z,29.00
2023-03-10T19:38:59.370Z,29.50
2023-03-10T19:41:27.113Z,30.50
2023-03-10T19:43:58.262Z,30.00
2023-03-10T19:46:25.873Z,30.75
2023-03-10T19:48:53.496Z,31.50
2023-03-10T19:51:25.066Z,26.25
2023-03-10T19:53:54.002Z,28.25
2023-03-10T19:56:22.099Z,27.50
2023-03-10T19:58:50.652Z,26.25
2023-03-10T20:01:26.299Z,31.50
2023-03-10T20:03:59.522Z,29.00
2023-03-10T20:06:27.798Z,29.00
2023-03-10T20:08:57.544Z,31.00
2023-03-10T20:11:26.314Z,25.25
2023-03-10T20:13:54.496Z,22.50
2023-03-10T20:16:24.405Z,28.75
2023-03-10T20:18:52.128Z,29.75
2023-03-10T20:21:19.608Z,28.00
2023-03-10T20:23:48.733Z,27.25
2023-03-10T20:26:16.938Z,27.00
2023-03-10T20:28:45.331Z,27.00
2023-03-10T20:31:22.286Z,28.00
2023-03-10T20:33:50.684Z,25.75
2023-03-10T20:36:19.603Z,26.25
2023-03-10T20:38:48.574Z,26.75
2023-03-10T20:41:19.406Z,24.75
2023-03-10T20:43:47.385Z,26.00
2023-03-10T20:46:17.683Z,26.50
2023-03-10T20:48:47.769Z,27.25
2023-03-10T20:51:15.645Z,27.25
2023-03-10T20:53:44.151Z,30.50
2023-03-10T20:56:12.349Z,25.00
2023-03-10T20:58:39.796Z,26.50
2023-03-10T21:01:15.562Z,25.00
2023-03-10T21:03:43.260Z,27.50
2023-03-10T21:06:15.674Z,25.75
2023-03-10T21:08:48.591Z,27.25
2023-03-10T21:11:19.117Z,50.67
2023-03-10T21:13:47.666Z,31.50
2023-03-10T21:16:15.482Z,32.25
2023-03-10T21:18:43.111Z,33.00
2023-03-10T21:21:13.740Z,35.75
2023-03-10T21:23:42.066Z,31.75
2023-03-10T21:26:15.097Z,30.50
2023-03-10T21:28:43.132Z,33.00
2023-03-10T21:31:11.286Z,27.25
2023-03-10T21:33:41.893Z,32.00
2023-03-10T21:36:17.538Z,29.25
2023-03-10T21:38:47.002Z,27.00
2023-03-10T21:41:17.129Z,28.50
2023-03-10T21:43:45.922Z,28.25
2023-03-10T21:46:14.165Z,27.25
2023-03-10T21:48:42.014Z,26.25
2023-03-10T21:51:13.240Z,27.75
2023-03-10T21:53:41.595Z,26.25
2023-03-10T21:56:09.692Z,37.75
2023-03-10T21:58:38.471Z,42.50
2023-03-10T22:01:12.607Z,36.00
2023-03-10T22:03:41.522Z,35.50
2023-03-10T22:06:09.395Z,31.00
2023-03-10T22:08:39.135Z,30.00
2023-03-10T22:11:08.044Z,30.75
2023-03-10T22:13:37.545Z,29.75
2023-03-10T22:16:08.236Z,30.00
2023-03-10T22:18:39.058Z,28.75
2023-03-10T22:21:06.555Z,28.00
2023-03-10T22:23:33.919Z,29.75
2023-03-10T22:26:01.515Z,17.50
2023-03-10T22:28:29.348Z,29.50
2023-03-10T22:31:01.897Z,27.25
2023-03-10T22:33:29.964Z,25.25
2023-03-10T22:36:02.686Z,26.25
2023-03-10T22:38:30.822Z,26.25
2023-03-10T22:40:58.408Z,23.25
2023-03-10T22:43:28.052Z,23.50
2023-03-10T22:45:59.939Z,30.50
2023-03-10T22:48:30.076Z,27.00
2023-03-10T22:50:58.383Z,27.00
2023-03-10T22:53:25.742Z,26.00
2023-03-10T22:55:53.350Z,27.75
2023-03-10T22:58:20.724Z,24.50
2023-03-10T23:00:48.853Z,23.00
2023-03-10T23:03:16.893Z,25.50
2023-03-10T23:05:45.346Z,24.25
2023-03-10T23:08:14.267Z,25.00
2023-03-10T23:10:42.040Z,25.50
2023-03-10T23:13:14.187Z,24.25
2023-03-10T23:15:43.011Z,24.00
2023-03-10T23:18:12.743Z,25.75
2023-03-10T23:20:44.947Z,29.75
2023-03-10T23:23:16.564Z,26.25
2023-03-10T23:25:50.970Z,16.00
2023-03-10T23:28:20.981Z,29.00
2023-03-10T23:30:49.532Z,31.50
2023-03-10T23:33:21.649Z,26.50
2023-03-10T23:35:53.937Z,24.00
2023-03-10T23:38:23.597Z,24.25
2023-03-10T23:40:51.980Z,24.00
2023-03-10T23:43:20.258Z,22.00
2023-03-10T23:45:53.329Z,14.25
2023-03-10T23:48:21.236Z,24.75
2023-03-10T23:50:48.802Z,24.00
2023-03-10T23:53:20.688Z,24.75
2023-03-10T23:55:48.606Z,24.00
2023-03-10T23:58:18.251Z,17.50
